createdAt,value
2016-03-06T00:00:28.560Z,0
2016-03-06T00:01:28.532Z,0
2016-03-06T00:02:28.550Z,0
2016-03-06T00:03:28.521Z,0
2016-03-06T00:04:28.540Z,0
2016-03-06T00:05:28.558Z,0
2016-03-06T00:06:28.561Z,0
2016-03-06T00:07:28.537Z,0
2016-03-06T00:08:28.555Z,0
2016-03-06T00:09:28.542Z,0
2016-03-06T00:10:28.528Z,0
2016-03-06T00:11:28.518Z,0
2016-03-06T00:12:28.538Z,0
2016-03-06T00:13:28.540Z,0
2016-03-06T00:14:28.543Z,0
2016-03-06T00:15:28.529Z,0
2016-03-06T00:16:28.532Z,0
2016-03-06T00:17:28.518Z,0
2016-03-06T00:18:28.537Z,0
2016-03-06T00:19:28.571Z,0
2016-03-06T00:20:28.527Z,0
2016-03-06T00:21:28.529Z,0
2016-03-06T00:22:28.517Z,0
2016-03-06T00:23:28.519Z,0
2016-03-06T00:24:28.522Z,0
2016-03-06T00:25:28.540Z,0
2016-03-06T00:26:28.512Z,0
2016-03-06T00:27:28.530Z,0
2016-03-06T00:28:28.534Z,0
2016-03-06T00:29:28.520Z,0
2016-03-06T00:30:28.398Z,0
2016-03-06T00:31:28.509Z,0
2016-03-06T00:32:28.544Z,0
2016-03-06T00:33:28.514Z,0
2016-03-06T00:34:28.518Z,0
2016-03-06T00:35:28.520Z,0
2016-03-06T00:36:28.523Z,0
2016-03-06T00:37:28.385Z,0
2016-03-06T00:38:28.513Z,0
2016-03-06T00:39:28.516Z,0
2016-03-06T00:40:28.518Z,0
2016-03-06T00:41:28.521Z,0
2016-03-06T00:42:28.539Z,0
2016-03-06T00:43:28.526Z,0
2016-03-06T00:44:28.514Z,0
2016-03-06T00:45:28.344Z,0
2016-03-06T00:46:28.550Z,0
2016-03-06T00:47:28.506Z,0
2016-03-06T00:48:28.524Z,0
2016-03-06T00:49:28.511Z,0
2016-03-06T00:50:28.499Z,0
2016-03-06T00:51:28.376Z,0
2016-03-06T00:52:28.332Z,0
2016-03-06T00:53:28.506Z,0
2016-03-06T00:54:28.540Z,0
2016-03-06T00:55:28.511Z,0
2016-03-06T00:56:28.515Z,0
2016-03-06T00:57:28.533Z,0
2016-03-06T00:58:28.504Z,0
2016-03-06T00:59:28.506Z,0
2016-03-06T01:00:28.510Z,0
2016-03-06T01:01:28.512Z,0
2016-03-06T01:02:28.515Z,0
2016-03-06T01:03:28.502Z,0
2016-03-06T01:04:28.520Z,0
2016-03-06T01:05:28.491Z,0
2016-03-06T01:06:28.511Z,0
2016-03-06T01:07:28.513Z,0
2016-03-06T01:08:28.500Z,0
2016-03-06T01:09:28.502Z,0
2016-03-06T01:10:28.479Z,0
2016-03-06T01:11:28.497Z,0
2016-03-06T01:12:28.500Z,0
2016-03-06T01:13:28.502Z,0
2016-03-06T01:14:28.505Z,0
2016-03-06T01:15:28.492Z,0
2016-03-06T01:16:28.495Z,0
2016-03-06T01:17:28.529Z,0
2016-03-06T01:18:28.501Z,0
2016-03-06T01:19:28.487Z,0
2016-03-06T01:20:28.537Z,0
2016-03-06T01:21:28.493Z,0
2016-03-06T01:22:28.511Z,0
2016-03-06T01:23:28.482Z,0
2016-03-06T01:24:28.485Z,0
2016-03-06T01:25:28.487Z,0
2016-03-06T01:26:28.490Z,0
2016-03-06T01:27:28.478Z,0
2016-03-06T01:28:28.512Z,0
2016-03-06T01:29:28.498Z,0
2016-03-06T01:30:28.470Z,0
2016-03-06T01:31:28.519Z,0
2016-03-06T01:32:28.475Z,0
2016-03-06T01:33:28.494Z,0
2016-03-06T01:34:28.481Z,0
2016-03-06T01:35:28.483Z,0
2016-03-06T01:36:28.502Z,0
2016-03-06T01:37:28.488Z,0
2016-03-06T01:38:28.491Z,0
2016-03-06T01:39:28.479Z,0
2016-03-06T01:40:28.528Z,0
2016-03-06T01:41:28.484Z,0
2016-03-06T01:42:28.502Z,0
2016-03-06T01:43:28.490Z,0
2016-03-06T01:44:28.477Z,0
2016-03-06T01:45:28.495Z,0
2016-03-06T01:46:28.482Z,0
2016-03-06T01:47:28.484Z,0
2016-03-06T01:48:28.503Z,0
2016-03-06T01:49:28.474Z,0
2016-03-06T01:50:28.321Z,0
2016-03-06T01:51:28.479Z,0
2016-03-06T01:52:28.482Z,0
2016-03-06T01:53:28.484Z,0
2016-03-06T01:54:28.487Z,0
2016-03-06T01:55:28.506Z,0
2016-03-06T01:56:28.478Z,0
2016-03-06T01:57:28.464Z,0
2016-03-06T01:58:28.498Z,0
2016-03-06T01:59:28.470Z,0
2016-03-06T02:00:28.473Z,0
2016-03-06T02:01:28.475Z,0
2016-03-06T02:02:28.478Z,0
2016-03-06T02:03:28.480Z,0
2016-03-06T02:04:28.467Z,0
2016-03-06T02:05:28.455Z,0
2016-03-06T02:06:29.005Z,0
2016-03-06T02:07:28.475Z,0
2016-03-06T02:08:28.478Z,0
2016-03-06T02:09:28.480Z,0
2016-03-06T02:10:28.483Z,0
2016-03-06T02:11:28.471Z,0
2016-03-06T02:12:28.474Z,0
2016-03-06T02:13:28.460Z,0
2016-03-06T02:14:28.463Z,0
2016-03-06T02:15:28.466Z,0
2016-03-06T02:16:28.313Z,0
2016-03-06T02:17:28.487Z,0
2016-03-06T02:18:28.459Z,0
2016-03-06T02:19:28.476Z,0
2016-03-06T02:20:28.479Z,0
2016-03-06T02:21:28.467Z,0
2016-03-06T02:22:28.515Z,0
2016-03-06T02:23:28.550Z,0
2016-03-06T02:24:28.459Z,0
2016-03-06T02:25:28.492Z,0
2016-03-06T02:26:28.465Z,0
2016-03-06T02:27:28.467Z,0
2016-03-06T02:28:28.486Z,0
2016-03-06T02:29:28.441Z,0
2016-03-06T02:30:28.459Z,0
2016-03-06T02:31:28.494Z,0
2016-03-06T02:32:28.450Z,0
2016-03-06T02:33:28.467Z,0
2016-03-06T02:34:28.470Z,0
2016-03-06T02:35:28.472Z,0
2016-03-06T02:36:28.445Z,0
2016-03-06T02:37:28.463Z,0
2016-03-06T02:38:28.466Z,0
2016-03-06T02:39:28.452Z,0
2016-03-06T02:40:28.471Z,0
2016-03-06T02:41:28.473Z,0
2016-03-06T02:42:28.444Z,0
2016-03-06T02:43:28.463Z,0
2016-03-06T02:44:28.466Z,0
2016-03-06T02:45:28.453Z,0
2016-03-06T02:46:28.502Z,0
2016-03-06T02:47:28.458Z,0
2016-03-06T02:48:28.461Z,0
2016-03-06T02:49:28.479Z,0
2016-03-06T02:50:28.451Z,0
2016-03-06T02:51:28.437Z,0
2016-03-06T02:52:28.440Z,0
2016-03-06T02:53:28.474Z,0
2016-03-06T02:54:28.446Z,0
2016-03-06T02:55:28.464Z,0
2016-03-06T02:56:28.436Z,0
2016-03-06T02:57:28.453Z,0
2016-03-06T02:58:28.487Z,0
2016-03-06T02:59:28.444Z,0
2016-03-06T03:00:28.447Z,0
2016-03-06T03:01:28.433Z,0
2016-03-06T03:02:28.437Z,0
2016-03-06T03:03:28.455Z,0
2016-03-06T03:04:28.426Z,0
2016-03-06T03:05:28.428Z,0
2016-03-06T03:06:28.447Z,0
2016-03-06T03:07:28.433Z,0
2016-03-06T03:08:28.453Z,0
2016-03-06T03:09:28.439Z,0
2016-03-06T03:10:28.458Z,0
2016-03-06T03:11:28.429Z,0
2016-03-06T03:12:28.432Z,0
2016-03-06T03:13:28.465Z,0
2016-03-06T03:14:28.422Z,0
2016-03-06T03:15:28.424Z,0
2016-03-06T03:16:28.443Z,0
2016-03-06T03:17:28.429Z,0
2016-03-06T03:18:28.277Z,0
2016-03-06T03:19:28.435Z,0
2016-03-06T03:20:28.422Z,0
2016-03-06T03:21:28.440Z,0
2016-03-06T03:22:28.427Z,0
2016-03-06T03:23:28.445Z,0
2016-03-06T03:24:28.418Z,0
2016-03-06T03:25:28.435Z,0
2016-03-06T03:26:28.423Z,0
2016-03-06T03:27:28.425Z,0
2016-03-06T03:28:28.443Z,0
2016-03-06T03:29:28.430Z,0
2016-03-06T03:30:28.434Z,0
2016-03-06T03:31:28.420Z,0
2016-03-06T03:32:28.408Z,0
2016-03-06T03:33:28.331Z,0
2016-03-06T03:34:28.429Z,0
2016-03-06T03:35:28.416Z,0
2016-03-06T03:36:28.403Z,0
2016-03-06T03:37:28.405Z,0
2016-03-06T03:38:28.437Z,0
2016-03-06T03:39:28.426Z,0
2016-03-06T03:40:28.398Z,0
2016-03-06T03:41:28.369Z,0
2016-03-06T03:42:28.358Z,0
2016-03-06T03:43:28.346Z,0
2016-03-06T03:44:28.328Z,0
2016-03-06T03:45:28.357Z,0
2016-03-06T03:46:28.338Z,0
2016-03-06T03:47:28.335Z,0
2016-03-06T03:48:28.317Z,0
2016-03-06T03:49:28.303Z,0
2016-03-06T03:50:28.303Z,0
2016-03-06T03:51:28.335Z,0
2016-03-06T03:52:28.288Z,0
2016-03-06T03:53:28.305Z,0
2016-03-06T03:54:28.292Z,0
2016-03-06T03:55:28.294Z,0
2016-03-06T03:56:28.281Z,0
2016-03-06T03:57:28.300Z,0
2016-03-06T03:58:28.318Z,0
2016-03-06T03:59:28.288Z,0
2016-03-06T04:00:28.306Z,0
2016-03-06T04:01:28.309Z,0
2016-03-06T04:02:28.295Z,0
2016-03-06T04:03:28.282Z,0
2016-03-06T04:04:28.284Z,0
2016-03-06T04:05:28.319Z,0
2016-03-06T04:06:28.321Z,0
2016-03-06T04:07:28.292Z,0
2016-03-06T04:08:28.280Z,0
2016-03-06T04:09:28.282Z,0
2016-03-06T04:10:28.285Z,0
2016-03-06T04:11:28.304Z,0
2016-03-06T04:12:28.290Z,0
2016-03-06T04:13:28.278Z,0
2016-03-06T04:14:28.311Z,0
2016-03-06T04:15:28.267Z,0
2016-03-06T04:16:28.286Z,0
2016-03-06T04:17:28.273Z,0
2016-03-06T04:18:28.275Z,0
2016-03-06T04:19:28.294Z,0
2016-03-06T04:20:28.265Z,0
2016-03-06T04:21:28.267Z,0
2016-03-06T04:22:28.302Z,0
2016-03-06T04:23:28.273Z,0
2016-03-06T04:24:28.291Z,0
2016-03-06T04:25:28.294Z,0
2016-03-06T04:26:28.266Z,0
2016-03-06T04:27:28.284Z,0
2016-03-06T04:28:28.302Z,0
2016-03-06T04:29:28.258Z,0
2016-03-06T04:30:28.276Z,0
2016-03-06T04:31:28.264Z,0
2016-03-06T04:32:28.282Z,0
2016-03-06T04:33:28.268Z,0
2016-03-06T04:34:28.256Z,0
2016-03-06T04:35:28.274Z,0
2016-03-06T04:36:28.261Z,0
2016-03-06T04:37:28.263Z,0
2016-03-06T04:38:28.298Z,0
2016-03-06T04:39:28.269Z,0
2016-03-06T04:40:28.256Z,0
2016-03-06T04:41:28.259Z,0
2016-03-06T04:42:28.262Z,0
2016-03-06T04:43:28.280Z,0
2016-03-06T04:44:28.251Z,0
2016-03-06T04:45:28.270Z,0
2016-03-06T04:46:28.257Z,0
2016-03-06T04:47:28.259Z,0
2016-03-06T04:48:28.247Z,0
2016-03-06T04:49:28.250Z,0
2016-03-06T04:50:28.252Z,0
2016-03-06T04:51:28.286Z,0
2016-03-06T04:52:28.258Z,0
2016-03-06T04:53:28.261Z,0
2016-03-06T04:54:28.264Z,0
2016-03-06T04:55:28.250Z,0
2016-03-06T04:56:28.272Z,0
2016-03-06T04:57:28.244Z,0
2016-03-06T04:58:28.247Z,0
2016-03-06T04:59:28.235Z,0
2016-03-06T05:00:28.268Z,0
2016-03-06T05:01:28.286Z,0
2016-03-06T05:02:28.242Z,0
2016-03-06T05:03:28.246Z,0
2016-03-06T05:04:28.248Z,0
2016-03-06T05:05:28.251Z,0
2016-03-06T05:06:28.237Z,0
2016-03-06T05:07:28.240Z,0
2016-03-06T05:08:28.259Z,0
2016-03-06T05:09:28.245Z,0
2016-03-06T05:10:28.229Z,0
2016-03-06T05:11:28.251Z,0
2016-03-06T05:12:28.235Z,0
2016-03-06T05:13:28.237Z,0
2016-03-06T05:14:28.225Z,0
2016-03-06T05:15:28.228Z,0
2016-03-06T05:16:28.246Z,0
2016-03-06T05:17:28.233Z,0
2016-03-06T05:18:28.236Z,0
2016-03-06T05:19:28.223Z,0
2016-03-06T05:20:28.241Z,0
2016-03-06T05:21:28.228Z,0
2016-03-06T05:22:28.215Z,0
2016-03-06T05:23:28.249Z,0
2016-03-06T05:24:28.252Z,0
2016-03-06T05:25:28.239Z,0
2016-03-06T05:26:28.226Z,0
2016-03-06T05:27:28.229Z,0
2016-03-06T05:28:28.231Z,0
2016-03-06T05:29:28.218Z,0
2016-03-06T05:30:28.237Z,0
2016-03-06T05:31:28.224Z,0
2016-03-06T05:32:28.226Z,0
2016-03-06T05:33:28.229Z,0
2016-03-06T05:34:28.232Z,0
2016-03-06T05:35:28.219Z,0
2016-03-06T05:36:28.237Z,0
2016-03-06T05:37:28.224Z,0
2016-03-06T05:38:28.212Z,0
2016-03-06T05:39:28.215Z,0
2016-03-06T05:40:28.217Z,0
2016-03-06T05:41:28.219Z,0
2016-03-06T05:42:28.238Z,0
2016-03-06T05:43:28.225Z,0
2016-03-06T05:44:28.212Z,0
2016-03-06T05:45:28.215Z,0
2016-03-06T05:46:28.201Z,0
2016-03-06T05:47:28.204Z,0
2016-03-06T05:48:28.192Z,0
2016-03-06T05:49:28.194Z,0
2016-03-06T05:50:28.244Z,0
2016-03-06T05:51:28.231Z,0
2016-03-06T05:52:28.202Z,0
2016-03-06T05:53:28.205Z,0
2016-03-06T05:54:28.176Z,0
2016-03-06T05:55:28.225Z,0
2016-03-06T05:56:28.197Z,0
2016-03-06T05:57:28.200Z,0
2016-03-06T05:58:28.233Z,0
2016-03-06T05:59:28.189Z,0
2016-03-06T06:00:28.224Z,0
2016-03-06T06:01:28.194Z,0
2016-03-06T06:02:28.198Z,0
2016-03-06T06:03:28.232Z,0
2016-03-06T06:04:28.187Z,0
2016-03-06T06:05:28.206Z,0
2016-03-06T06:06:28.193Z,0
2016-03-06T06:07:28.195Z,0
2016-03-06T06:08:28.214Z,0
2016-03-06T06:09:28.201Z,0
2016-03-06T06:10:28.188Z,0
2016-03-06T06:11:28.207Z,0
2016-03-06T06:12:28.193Z,0
2016-03-06T06:13:28.196Z,0
2016-03-06T06:14:28.215Z,0
2016-03-06T06:15:28.186Z,0
2016-03-06T06:16:28.188Z,0
2016-03-06T06:17:28.207Z,0
2016-03-06T06:18:28.178Z,0
2016-03-06T06:19:28.212Z,0
2016-03-06T06:20:28.183Z,0
2016-03-06T06:21:28.202Z,0
2016-03-06T06:22:28.205Z,0
2016-03-06T06:23:28.192Z,0
2016-03-06T06:24:28.210Z,0
2016-03-06T06:25:28.181Z,0
2016-03-06T06:26:28.216Z,0
2016-03-06T06:27:28.186Z,0
2016-03-06T06:28:28.190Z,0
2016-03-06T06:29:28.177Z,0
2016-03-06T06:30:28.194Z,0
2016-03-06T06:31:28.197Z,0
2016-03-06T06:32:28.185Z,0
2016-03-06T06:33:28.172Z,0
2016-03-06T06:34:28.174Z,0
2016-03-06T06:35:28.021Z,0
2016-03-06T06:36:28.195Z,0
2016-03-06T06:37:28.183Z,0
2016-03-06T06:38:28.169Z,0
2016-03-06T06:39:28.203Z,0
2016-03-06T06:40:28.191Z,0
2016-03-06T06:41:28.162Z,0
2016-03-06T06:42:28.009Z,0
2016-03-06T06:43:28.167Z,0
2016-03-06T06:44:28.170Z,0
2016-03-06T06:45:28.173Z,0
2016-03-06T06:46:28.191Z,0
2016-03-06T06:47:28.162Z,5
2016-03-06T06:48:28.165Z,5
2016-03-06T06:49:28.153Z,5
2016-03-06T06:50:28.156Z,5
2016-03-06T06:51:28.189Z,5
2016-03-06T06:52:28.160Z,5
2016-03-06T06:53:28.006Z,5
2016-03-06T06:54:28.181Z,5
2016-03-06T06:55:27.996Z,5
2016-03-06T06:56:28.187Z,5
2016-03-06T06:57:28.158Z,5
2016-03-06T06:58:28.161Z,5
2016-03-06T06:59:28.179Z,5
2016-03-06T07:00:28.150Z,5
2016-03-06T07:01:28.185Z,10
2016-03-06T07:02:28.188Z,10
2016-03-06T07:03:28.158Z,10
2016-03-06T07:04:28.161Z,10
2016-03-06T07:05:28.180Z,10
2016-03-06T07:06:28.157Z,10
2016-03-06T07:07:28.174Z,15
2016-03-06T07:08:28.146Z,15
2016-03-06T07:09:28.148Z,15
2016-03-06T07:10:28.151Z,15
2016-03-06T07:11:28.154Z,15
2016-03-06T07:12:28.141Z,20
2016-03-06T07:13:28.159Z,20
2016-03-06T07:14:28.146Z,25
2016-03-06T07:15:28.009Z,25
2016-03-06T07:16:28.167Z,25
2016-03-06T07:17:28.139Z,25
2016-03-06T07:18:28.157Z,30
2016-03-06T07:19:28.175Z,30
2016-03-06T07:20:28.147Z,30
2016-03-06T07:21:28.164Z,30
2016-03-06T07:22:28.136Z,35
2016-03-06T07:23:28.139Z,35
2016-03-06T07:24:28.142Z,35
2016-03-06T07:25:28.144Z,35
2016-03-06T07:26:28.147Z,30
2016-03-06T07:27:28.135Z,30
2016-03-06T07:28:27.981Z,25
2016-03-06T07:29:28.186Z,25
2016-03-06T07:30:28.158Z,25
2016-03-06T07:31:28.146Z,30
2016-03-06T07:32:28.164Z,35
2016-03-06T07:33:28.135Z,35
2016-03-06T07:34:28.154Z,35
2016-03-06T07:35:28.124Z,35
2016-03-06T07:36:28.143Z,35
2016-03-06T07:37:28.130Z,45
2016-03-06T07:38:28.132Z,50
2016-03-06T07:39:28.151Z,55
2016-03-06T07:40:28.123Z,55
2016-03-06T07:41:28.140Z,60
2016-03-06T07:42:28.143Z,65
2016-03-06T07:43:27.959Z,70
2016-03-06T07:44:28.134Z,70
2016-03-06T07:45:28.120Z,75
2016-03-06T07:46:28.123Z,75
2016-03-06T07:47:28.157Z,80
2016-03-06T07:48:28.128Z,80
2016-03-06T07:49:28.115Z,85
2016-03-06T07:50:28.165Z,85
2016-03-06T07:51:28.120Z,85
2016-03-06T07:52:28.139Z,90
2016-03-06T07:53:28.125Z,80
2016-03-06T07:54:28.113Z,85
2016-03-06T07:55:28.131Z,95
2016-03-06T07:56:28.118Z,95
2016-03-06T07:57:28.121Z,85
2016-03-06T07:58:28.139Z,65
2016-03-06T07:59:28.111Z,50
2016-03-06T08:00:28.114Z,55
2016-03-06T08:01:28.147Z,50
2016-03-06T08:02:28.104Z,50
2016-03-06T08:03:28.122Z,45
2016-03-06T08:04:28.124Z,45
2016-03-06T08:05:28.112Z,45
2016-03-06T08:06:28.184Z,45
2016-03-06T08:07:28.110Z,40
2016-03-06T08:08:28.127Z,40
2016-03-06T08:09:28.099Z,45
2016-03-06T08:10:28.132Z,45
2016-03-06T08:11:28.135Z,45
2016-03-06T08:12:28.106Z,45
2016-03-06T08:13:28.109Z,40
2016-03-06T08:14:28.143Z,40
2016-03-06T08:15:28.115Z,35
2016-03-06T08:16:28.117Z,40
2016-03-06T08:17:28.136Z,50
2016-03-06T08:18:28.106Z,65
2016-03-06T08:19:28.110Z,75
2016-03-06T08:20:28.112Z,85
2016-03-06T08:21:28.115Z,80
2016-03-06T08:22:28.133Z,85
2016-03-06T08:23:28.121Z,75
2016-03-06T08:24:28.139Z,70
2016-03-06T08:25:28.141Z,65
2016-03-06T08:26:28.145Z,75
2016-03-06T08:27:28.116Z,70
2016-03-06T08:28:28.134Z,65
2016-03-06T08:29:28.121Z,70
2016-03-06T08:30:28.155Z,75
2016-03-06T08:31:28.095Z,80
2016-03-06T08:32:28.113Z,85
2016-03-06T08:33:28.132Z,80
2016-03-06T08:34:28.118Z,75
2016-03-06T08:35:28.574Z,65
2016-03-06T08:36:28.124Z,90
2016-03-06T08:37:28.096Z,100
2016-03-06T08:38:28.114Z,80
2016-03-06T08:39:28.149Z,95
2016-03-06T08:40:28.120Z,115
2016-03-06T08:41:28.137Z,110
2016-03-06T08:42:28.126Z,95
2016-03-06T08:43:28.128Z,100
2016-03-06T08:44:28.099Z,100
2016-03-06T08:45:28.118Z,90
2016-03-06T08:46:27.979Z,105
2016-03-06T08:47:28.107Z,115
2016-03-06T08:48:28.125Z,115
2016-03-06T08:49:28.112Z,120
2016-03-06T08:50:28.115Z,120
2016-03-06T08:51:28.133Z,130
2016-03-06T08:52:28.121Z,130
2016-03-06T08:53:28.123Z,125
2016-03-06T08:54:28.111Z,125
2016-03-06T08:55:28.113Z,95
2016-03-06T08:56:28.116Z,80
2016-03-06T08:57:28.134Z,80
2016-03-06T08:58:28.105Z,95
2016-03-06T08:59:28.124Z,100
2016-03-06T09:00:28.127Z,100
2016-03-06T09:01:28.130Z,125
2016-03-06T09:02:28.132Z,135
2016-03-06T09:03:28.103Z,145
2016-03-06T09:04:28.122Z,160
2016-03-06T09:05:28.155Z,170
2016-03-06T09:06:28.126Z,165
2016-03-06T09:07:28.146Z,165
2016-03-06T09:08:28.116Z,150
2016-03-06T09:09:28.119Z,120
2016-03-06T09:10:28.122Z,130
2016-03-06T09:11:28.140Z,155
2016-03-06T09:12:28.112Z,150
2016-03-06T09:13:28.130Z,155
2016-03-06T09:14:28.164Z,170
2016-03-06T09:15:28.167Z,195
2016-03-06T09:16:28.138Z,215
2016-03-06T09:17:28.125Z,245
2016-03-06T09:18:28.144Z,250
2016-03-06T09:19:28.146Z,260
2016-03-06T09:20:28.133Z,235
2016-03-06T09:21:28.137Z,210
2016-03-06T09:22:28.139Z,175
2016-03-06T09:23:28.141Z,160
2016-03-06T09:24:28.159Z,155
2016-03-06T09:25:28.178Z,165
2016-03-06T09:26:28.134Z,200
2016-03-06T09:27:28.152Z,240
2016-03-06T09:28:28.155Z,240
2016-03-06T09:29:28.157Z,215
2016-03-06T09:30:28.175Z,220
2016-03-06T09:31:28.147Z,200
2016-03-06T09:32:28.135Z,190
2016-03-06T09:33:28.153Z,170
2016-03-06T09:34:28.155Z,180
2016-03-06T09:35:28.158Z,190
2016-03-06T09:36:28.161Z,200
2016-03-06T09:37:28.148Z,210
2016-03-06T09:38:28.151Z,240
2016-03-06T09:39:28.138Z,265
2016-03-06T09:40:28.234Z,260
2016-03-06T09:41:28.159Z,270
2016-03-06T09:42:28.162Z,260
2016-03-06T09:43:28.165Z,230
2016-03-06T09:44:28.167Z,225
2016-03-06T09:45:28.184Z,230
2016-03-06T09:46:28.173Z,225
2016-03-06T09:47:28.159Z,215
2016-03-06T09:48:28.161Z,185
2016-03-06T09:49:28.212Z,170
2016-03-06T09:50:28.167Z,170
2016-03-06T09:51:28.170Z,160
2016-03-06T09:52:28.189Z,175
2016-03-06T09:53:28.191Z,200
2016-03-06T09:54:28.178Z,215
2016-03-06T09:55:28.243Z,205
2016-03-06T09:56:28.183Z,190
2016-03-06T09:57:28.186Z,165
2016-03-06T09:58:28.189Z,170
2016-03-06T09:59:28.208Z,185
2016-03-06T10:00:28.194Z,200
2016-03-06T10:01:28.196Z,210
2016-03-06T10:02:28.200Z,215
2016-03-06T10:03:28.186Z,200
2016-03-06T10:04:28.188Z,180
2016-03-06T10:05:28.192Z,150
2016-03-06T10:06:28.210Z,145
2016-03-06T10:07:28.213Z,145
2016-03-06T10:08:28.200Z,145
2016-03-06T10:09:28.218Z,150
2016-03-06T10:10:28.283Z,165
2016-03-06T10:11:28.224Z,160
2016-03-06T10:12:28.242Z,140
2016-03-06T10:13:28.213Z,165
2016-03-06T10:14:28.216Z,200
2016-03-06T10:15:28.218Z,200
2016-03-06T10:16:28.207Z,205
2016-03-06T10:17:28.224Z,210
2016-03-06T10:18:28.242Z,205
2016-03-06T10:19:28.245Z,225
2016-03-06T10:20:28.248Z,205
2016-03-06T10:21:28.234Z,190
2016-03-06T10:22:28.237Z,175
2016-03-06T10:23:28.240Z,165
2016-03-06T10:24:28.243Z,170
2016-03-06T10:25:28.245Z,165
2016-03-06T10:26:28.264Z,160
2016-03-06T10:27:28.267Z,165
2016-03-06T10:28:28.269Z,165
2016-03-06T10:29:28.256Z,180
2016-03-06T10:30:28.275Z,180
2016-03-06T10:31:28.246Z,185
2016-03-06T10:32:28.265Z,190
2016-03-06T10:33:28.283Z,190
2016-03-06T10:34:28.269Z,210
2016-03-06T10:35:28.305Z,215
2016-03-06T10:36:28.322Z,205
2016-03-06T10:37:28.277Z,210
2016-03-06T10:38:28.296Z,205
2016-03-06T10:39:28.283Z,215
2016-03-06T10:40:28.333Z,215
2016-03-06T10:41:28.304Z,205
2016-03-06T10:42:28.166Z,195
2016-03-06T10:43:28.310Z,185
2016-03-06T10:44:28.328Z,185
2016-03-06T10:45:28.299Z,185
2016-03-06T10:46:28.318Z,190
2016-03-06T10:47:28.320Z,190
2016-03-06T10:48:28.324Z,190
2016-03-06T10:49:28.342Z,190
2016-03-06T10:50:28.328Z,185
2016-03-06T10:51:28.331Z,185
2016-03-06T10:52:28.333Z,205
2016-03-06T10:53:28.337Z,210
2016-03-06T10:54:28.323Z,215
2016-03-06T10:55:28.326Z,205
2016-03-06T10:56:28.329Z,205
2016-03-06T10:57:28.331Z,210
2016-03-06T10:58:28.334Z,200
2016-03-06T10:59:28.181Z,175
2016-03-06T11:00:28.355Z,150
2016-03-06T11:01:28.374Z,135
2016-03-06T11:02:28.377Z,120
2016-03-06T11:03:28.364Z,100
2016-03-06T11:04:28.366Z,85
2016-03-06T11:05:28.369Z,75
2016-03-06T11:06:28.372Z,75
2016-03-06T11:07:28.374Z,70
2016-03-06T11:08:28.392Z,60
2016-03-06T11:09:28.380Z,55
2016-03-06T11:10:28.382Z,55
2016-03-06T11:11:28.447Z,55
2016-03-06T11:12:28.403Z,50
2016-03-06T11:13:28.390Z,50
2016-03-06T11:14:28.409Z,55
2016-03-06T11:15:28.396Z,50
2016-03-06T11:16:28.382Z,45
2016-03-06T11:17:28.417Z,40
2016-03-06T11:18:28.435Z,45
2016-03-06T11:19:28.391Z,50
2016-03-06T11:20:28.425Z,55
2016-03-06T11:21:28.428Z,55
2016-03-06T11:22:28.399Z,55
2016-03-06T11:23:28.433Z,55
2016-03-06T11:24:28.967Z,60
2016-03-06T11:25:28.438Z,65
2016-03-06T11:26:28.426Z,85
2016-03-06T11:27:28.412Z,110
2016-03-06T11:28:28.446Z,130
2016-03-06T11:29:28.450Z,140
2016-03-06T11:30:27.702Z,135
2016-03-06T11:31:28.438Z,130
2016-03-06T11:32:28.458Z,120
2016-03-06T11:33:28.444Z,125
2016-03-06T11:34:28.447Z,130
2016-03-06T11:35:28.466Z,135
2016-03-06T11:36:28.468Z,135
2016-03-06T11:37:28.439Z,140
2016-03-06T11:38:28.463Z,145
2016-03-06T11:39:28.436Z,150
2016-03-06T11:40:28.484Z,145
2016-03-06T11:41:28.486Z,145
2016-03-06T11:42:28.647Z,135
2016-03-06T11:43:28.461Z,120
2016-03-06T11:44:28.479Z,105
2016-03-06T11:45:28.483Z,90
2016-03-06T11:46:28.469Z,80
2016-03-06T11:47:28.488Z,65
2016-03-06T11:48:28.475Z,60
2016-03-06T11:49:28.493Z,60
2016-03-06T11:50:28.496Z,60
2016-03-06T11:51:28.482Z,55
2016-03-06T11:52:28.485Z,60
2016-03-06T11:53:28.488Z,65
2016-03-06T11:54:28.491Z,60
2016-03-06T11:55:28.978Z,55
2016-03-06T11:56:28.324Z,55
2016-03-06T11:57:28.359Z,50
2016-03-06T11:58:28.486Z,50
2016-03-06T11:59:28.504Z,55
2016-03-06T12:00:28.492Z,65
2016-03-06T12:01:28.509Z,70
2016-03-06T12:02:28.560Z,80
2016-03-06T12:03:28.500Z,75
2016-03-06T12:04:28.503Z,70
2016-03-06T12:05:28.520Z,70
2016-03-06T12:06:28.522Z,75
2016-03-06T12:07:28.542Z,85
2016-03-06T12:08:28.497Z,110
2016-03-06T12:09:28.516Z,120
2016-03-06T12:10:28.550Z,130
2016-03-06T12:11:28.521Z,140
2016-03-06T12:12:28.555Z,160
2016-03-06T12:13:28.527Z,190
2016-03-06T12:14:28.529Z,205
2016-03-06T12:15:28.532Z,205
2016-03-06T12:16:28.535Z,200
2016-03-06T12:17:28.537Z,190
2016-03-06T12:18:28.540Z,180
2016-03-06T12:19:28.604Z,175
2016-03-06T12:20:28.545Z,180
2016-03-06T12:21:28.548Z,190
2016-03-06T12:22:28.535Z,195
2016-03-06T12:23:28.537Z,180
2016-03-06T12:24:28.557Z,160
2016-03-06T12:25:28.559Z,145
2016-03-06T12:26:28.607Z,130
2016-03-06T12:27:28.549Z,120
2016-03-06T12:28:28.551Z,110
2016-03-06T12:29:28.569Z,100
2016-03-06T12:30:28.556Z,90
2016-03-06T12:31:28.576Z,75
2016-03-06T12:32:28.593Z,75
2016-03-06T12:33:28.580Z,80
2016-03-06T12:34:28.567Z,110
2016-03-06T12:35:28.586Z,160
2016-03-06T12:36:28.588Z,210
2016-03-06T12:37:28.575Z,235
2016-03-06T12:38:28.578Z,225
2016-03-06T12:39:28.581Z,215
2016-03-06T12:40:28.583Z,195
2016-03-06T12:41:28.570Z,175
2016-03-06T12:42:28.605Z,160
2016-03-06T12:43:28.575Z,150
2016-03-06T12:44:28.594Z,145
2016-03-06T12:45:28.595Z,135
2016-03-06T12:46:28.554Z,125
2016-03-06T12:47:28.591Z,125
2016-03-06T12:48:28.549Z,125
2016-03-06T12:49:28.539Z,120
2016-03-06T12:50:28.593Z,115
2016-03-06T12:51:28.528Z,120
2016-03-06T12:52:28.543Z,130
2016-03-06T12:53:28.541Z,130
2016-03-06T12:54:28.524Z,130
2016-03-06T12:55:28.555Z,135
2016-03-06T12:56:28.556Z,140
2016-03-06T12:57:28.525Z,145
2016-03-06T12:58:28.526Z,155
2016-03-06T12:59:28.528Z,155
2016-03-06T13:00:28.529Z,140
2016-03-06T13:01:28.547Z,135
2016-03-06T13:02:28.533Z,130
2016-03-06T13:03:28.534Z,135
2016-03-06T13:04:28.522Z,130
2016-03-06T13:05:28.538Z,140
2016-03-06T13:06:28.587Z,150
2016-03-06T13:07:28.528Z,150
2016-03-06T13:08:28.562Z,145
2016-03-06T13:09:28.533Z,145
2016-03-06T13:10:28.535Z,145
2016-03-06T13:11:28.538Z,140
2016-03-06T13:12:28.555Z,145
2016-03-06T13:13:28.543Z,150
2016-03-06T13:14:28.546Z,150
2016-03-06T13:15:28.579Z,145
2016-03-06T13:16:28.552Z,140
2016-03-06T13:17:28.569Z,135
2016-03-06T13:18:28.556Z,135
2016-03-06T13:19:28.560Z,130
2016-03-06T13:20:28.593Z,120
2016-03-06T13:21:28.580Z,120
2016-03-06T13:22:28.567Z,115
2016-03-06T13:23:28.585Z,110
2016-03-06T13:24:28.651Z,105
2016-03-06T13:25:32.353Z,90
2016-03-06T13:26:28.474Z,80
2016-03-06T13:27:29.106Z,70
2016-03-06T13:28:31.341Z,60
2016-03-06T13:29:29.061Z,60
2016-03-06T13:30:28.642Z,60
2016-03-06T13:31:28.582Z,55
2016-03-06T13:32:28.601Z,50
2016-03-06T13:33:28.619Z,45
2016-03-06T13:34:28.607Z,40
2016-03-06T13:35:28.624Z,35
2016-03-06T13:36:28.643Z,30
2016-03-06T13:37:28.598Z,20
2016-03-06T13:38:28.600Z,15
2016-03-06T13:39:28.603Z,20
2016-03-06T13:40:28.637Z,20
2016-03-06T13:41:28.624Z,15
2016-03-06T13:42:28.611Z,20
2016-03-06T13:43:28.630Z,20
2016-03-06T13:44:28.617Z,20
2016-03-06T13:45:28.619Z,30
2016-03-06T13:46:28.621Z,40
2016-03-06T13:47:28.672Z,55
2016-03-06T13:48:28.643Z,60
2016-03-06T13:49:28.646Z,75
2016-03-06T13:50:28.633Z,95
2016-03-06T13:51:28.619Z,110
2016-03-06T13:52:28.622Z,125
2016-03-06T13:53:28.625Z,140
2016-03-06T13:54:28.643Z,140
2016-03-06T13:55:28.646Z,145
2016-03-06T13:56:28.649Z,140
2016-03-06T13:57:28.667Z,135
2016-03-06T13:58:28.639Z,130
2016-03-06T13:59:28.657Z,120
2016-03-06T14:00:28.644Z,115
2016-03-06T14:01:28.632Z,115
2016-03-06T14:02:28.666Z,115
2016-03-06T14:03:28.684Z,120
2016-03-06T14:04:28.655Z,120
2016-03-06T14:05:28.673Z,120
2016-03-06T14:06:28.671Z,115
2016-03-06T14:07:28.674Z,110
2016-03-06T14:08:28.676Z,105
2016-03-06T14:09:28.695Z,110
2016-03-06T14:10:28.682Z,110
2016-03-06T14:11:28.668Z,105
2016-03-06T14:12:28.671Z,100
2016-03-06T14:13:28.659Z,105
2016-03-06T14:14:28.677Z,105
2016-03-06T14:15:28.679Z,110
2016-03-06T14:16:28.667Z,105
2016-03-06T14:17:28.669Z,100
2016-03-06T14:18:28.687Z,95
2016-03-06T14:19:28.675Z,95
2016-03-06T14:20:28.708Z,95
2016-03-06T14:21:28.665Z,95